Skyway, Washington
Current Conditions -  °F | °C
As of 8:53 PM on Sunday 19 Oct 2014 (Local Time) from KRNT Reporting Station
Clear Clear  
Wind Chill: 63°   Ceiling: Unl
Heat Index: 63°   Visibility: NA
Dew Point: 57°   Wind: 0mph
Humidity: 81%   Direction: NA
Pressure: 29.69"   Gusts: NA
Location:  47.4965°N, 122.251°W
Report Text: KRNT 200353Z AUTO 00000KT CLR 17/14 A2969 RMK AO2 SLP060 T01720139 $
Loading
Personal Weather Stations






























Interactive Weather Map
Tropical Storm Tracking
New forecast layout! Learn more

10-Day Weather Forecast

Advertisements
Track Severe Weather on mobile